Vers la page d'accueil de NAV CANADA Ouverture d'une nouvelle session Chercher sur le site AWWS Clause de non-reponsabilité To the equivalent English page Trucs et astuces FAQ Quoi de neuf sur le site Vers la section Prévisions et observations / NOTAM Vers le site web pour <<Déposer un plan de vol>> Publications et liens importants Mise à jour du profil d'usager Numéros de téléphone des FIC Mes données météo personnelles Données météo de route Données météo régionales Données météo locales Vers la section Prévisions et observations / NOTAM
Requête générée le 2020/07/09 à 10:49:50 UTC. L'information météorologique disponible à ce moment est affichée.

METAR/TAF

Si vous notez des différences entre le METAR/TAF codé et le METAR/TAF en langage clair, veuillez utiliser la version codée. Les bulletins LWIS ne sont pas décodés en langage clair.

SHERBROOKE/QC    (voir Cam météo)

METAR CYSC 091000Z AUTO VRB02KT 9SM FEW250 15/15 A2999 RMK SLP157 DENSITY ALT 8 FT=
METAR
LIEU
CYSC - SHERBROOKE/QC
DATE - HEURE
09 JUILLET 2020 - 1000 UTC
VENT
VRB @ 2  NOEUDS
VISIBILITE
9 MILLES TERR.
PORTEE VISUELLE DE PISTE
METEO
NEBULOSITE
QUELQUES NUAGES (1/8 - 2/8) 25000  PI
TEMP / PT DE ROSEE
15 C / 15 C
ALTIMETRE
29.99 PO HG
TEMPS RECENT
CISAILLEMENT

METAR CYSC 090900Z AUTO 06003KT 6SM BR CLR 14/14 A2997 RMK SLP151 DENSITY ALT 8 FT=
METAR
LIEU
CYSC - SHERBROOKE/QC
DATE - HEURE
09 JUILLET 2020 - 0900 UTC
VENT
60 VRAIS @ 3  NOEUDS
VISIBILITE
6 MILLES TERR.
PORTEE VISUELLE DE PISTE
METEO
BRUME
NEBULOSITE
CIEL DEGAGE
TEMP / PT DE ROSEE
14 C / 14 C
ALTIMETRE
29.97 PO HG
TEMPS RECENT
CISAILLEMENT

SPECI CYSC 090857Z AUTO 05003KT 3SM BR CLR 14/14 A2996 RMK SLP150=
SPECI
LIEU
CYSC - SHERBROOKE/QC
DATE - HEURE
09 JUILLET 2020 - 0857 UTC
VENT
50 VRAIS @ 3  NOEUDS
VISIBILITE
3 MILLES TERR.
PORTEE VISUELLE DE PISTE
METEO
BRUME
NEBULOSITE
CIEL DEGAGE
TEMP / PT DE ROSEE
14 C / 14 C
ALTIMETRE
29.96 PO HG
TEMPS RECENT
CISAILLEMENT

SPECI CYSC 090847Z AUTO 03003KT 320V040 2 1/2SM BR CLR 14/14 A2996 RMK SLP148=
SPECI
LIEU
CYSC - SHERBROOKE/QC
DATE - HEURE
09 JUILLET 2020 - 0847 UTC
VENT
30 VRAIS @ 3  NOEUDS
VARIATION
320 <-> 40  DEG
VISIBILITE
2 1/2 MILLES TERR.
PORTEE VISUELLE DE PISTE
METEO
BRUME
NEBULOSITE
CIEL DEGAGE
TEMP / PT DE ROSEE
14 C / 14 C
ALTIMETRE
29.96 PO HG
TEMPS RECENT
CISAILLEMENT

SPECI CYSC 090842Z AUTO 00000KT 3SM BR CLR 14/14 A2996 RMK SLP150 DENSITY ALT 8 FT=
SPECI
LIEU
CYSC - SHERBROOKE/QC
DATE - HEURE
09 JUILLET 2020 - 0842 UTC
VENT
CALME
VISIBILITE
3 MILLES TERR.
PORTEE VISUELLE DE PISTE
METEO
BRUME
NEBULOSITE
CIEL DEGAGE
TEMP / PT DE ROSEE
14 C / 14 C
ALTIMETRE
29.96 PO HG
TEMPS RECENT
CISAILLEMENT

SPECI CYSC 090841Z AUTO 00000KT 2 1/2SM BR CLR 14/14 A2996 RMK SLP150 DENSITY A 800FT=
SPECI
LIEU
CYSC - SHERBROOKE/QC
DATE - HEURE
09 JUILLET 2020 - 0841 UTC
VENT
CALME
VISIBILITE
2 1/2 MILLES TERR.
PORTEE VISUELLE DE PISTE
METEO
BRUME
NEBULOSITE
CIEL DEGAGE
TEMP / PT DE ROSEE
14 C / 14 C
ALTIMETRE
29.96 PO HG
TEMPS RECENT
CISAILLEMENT

SPECI CYSC 090833Z AUTO 00000KT 5SM BR FEW250 14/14 A2996 RMK SLP148=
SPECI
LIEU
CYSC - SHERBROOKE/QC
DATE - HEURE
09 JUILLET 2020 - 0833 UTC
VENT
CALME
VISIBILITE
5 MILLES TERR.
PORTEE VISUELLE DE PISTE
METEO
BRUME
NEBULOSITE
QUELQUES NUAGES (1/8 - 2/8) 25000  PI
TEMP / PT DE ROSEE
14 C / 14 C
ALTIMETRE
29.96 PO HG
TEMPS RECENT
CISAILLEMENT

METAR CYSC 090800Z AUTO 10004KT 9SM CLR 15/15 A2996 RMK SLP147 DENSITY ALT 900F
METAR
LIEU
CYSC - SHERBROOKE/QC
DATE - HEURE
09 JUILLET 2020 - 0800 UTC
VENT
100 VRAIS @ 4  NOEUDS
VISIBILITE
9 MILLES TERR.
PORTEE VISUELLE DE PISTE
METEO
NEBULOSITE
CIEL DEGAGE
TEMP / PT DE ROSEE
15 C / 15 C
ALTIMETRE
29.96 PO HG
TEMPS RECENT
CISAILLEMENT

TAF CYSC 091038Z 0911/0923 VRB03KT P6SM FEW250 BECMG 0913/0915 24005KT RMK FCST BASED ON AUTO OBS. NXT FCST BY 091800Z=
TAF
LIEU

CYSC - SHERBROOKE/QC
VALIDITE [UTC]
09 JUL - 1038 à
09 JUL - 2300
 
PERIODES
[UTC]
VENT
[DEGRES VRAIS]
VISIBILITE
[MILLES TERR.]
METEO
NEBULOSITE
[PIEDS AGL]
 
09 JUL - 1100 à
09 JUL - 2300
VARIABLE @ 3 NOEUDS
6+
---
25000 QUELQUES
CHANGEMENTS GRADUELS
09 JUL - 1300 à
09 JUL - 1500
240 @ 5 NOEUDS
 
 
 
REMARQUES
LA PREVISION EST FONDEE SUR DES OBSERVATIONS AUTOMATISEES - LA PREVISION SUIVANTE SERA EMISE POUR 1800 UTC LE 09


Votre heure Heure UTC
Données météorologiques fournies par Environnement Canada et NAV CANADA